Time;durP1;ratioP1;P1;durP2;ratioP2;P2;SDS_P1;SDS_P2;PMS_P1;PMS_P2;Temp;Humidity;BMP_temperature;BMP_pressure;BME280_temperature;BME280_humidity;BME280_pressure;Samples;Min_cycle;Max_cycle;Signal;HPM_P1;HPM_P2
2022/04/17 00:02:00;;;;;;;;;;;;;;;26.25;36.30;94913.41;4912914;29;7196;-59
2022/04/17 00:04:36;;;;;;;;;;;;;;;26.24;36.11;94908.38;4896445;29;7176;-60
2022/04/17 00:07:03;;;;;;;;;;;;;;;26.25;35.86;94909.91;4898427;29;7190;-60
2022/04/17 00:09:32;;;;;;;;;;;;;;;26.27;35.56;94912.91;4915173;29;7353;-60
2022/04/17 00:11:58;;;;;;;;;;;;;;;26.21;35.96;94907.38;4934173;28;7116;-60
2022/04/17 00:14:24;;;;;;;;;;;;;;;26.22;35.36;94913.66;4944631;28;9183;-60
2022/04/17 00:16:50;;;;;;;;;;;;;;;26.19;36.33;94900.88;4946392;28;7218;-60
2022/04/17 00:19:28;;;;;;;;;;;;;;;26.16;36.42;94897.84;4958297;28;7285;-60
2022/04/17 00:22:07;;;;;;;;;;;;;;;26.17;35.65;94899.38;4979124;28;9354;-60
2022/04/17 00:24:33;;;;;;;;;;;;;;;26.15;35.98;94901.88;5050933;28;7251;-60
2022/04/17 00:27:00;;;;;;;;;;;;;;;26.13;35.62;94890.59;5057870;28;7034;-60
2022/04/17 00:29:27;;;;;;;;;;;;;;;26.17;36.26;94896.59;5041497;28;9361;-60
2022/04/17 00:31:58;;;;;;;;;;;;;;;26.13;35.45;94882.34;5045347;28;8771;-59
2022/04/17 00:34:25;;;;;;;;;;;;;;;26.13;36.57;94882.34;5032788;28;9411;-60
2022/04/17 00:36:51;;;;;;;;;;;;;;;26.13;35.91;94881.56;5030620;28;7334;-60
2022/04/17 00:39:17;;;;;;;;;;;;;;;26.15;35.69;94890.09;5042558;28;8253;-60
2022/04/17 00:41:46;;;;;;;;;;;;;;;26.15;36.23;94890.09;5028901;28;7459;-60
2022/04/17 00:44:15;;;;;;;;;;;;;;;26.12;35.64;94878.06;5033923;28;9218;-59
2022/04/17 00:46:41;;;;;;;;;;;;;;;26.13;36.41;94887.09;5040147;28;7141;-59
2022/04/17 00:49:08;;;;;;;;;;;;;;;26.12;35.45;94889.09;5038248;28;9621;-59
2022/04/17 00:51:39;;;;;;;;;;;;;;;26.12;36.18;94886.31;5047680;28;7132;-59
2022/04/17 00:54:08;;;;;;;;;;;;;;;26.10;35.73;94882.56;5029341;28;9393;-59
2022/04/17 00:56:34;;;;;;;;;;;;;;;26.07;36.34;94876.03;5044312;28;7240;-59
2022/04/17 00:59:02;;;;;;;;;;;;;;;26.07;35.72;94878.81;5033553;28;7006;-59
2022/04/17 01:01:33;;;;;;;;;;;;;;;26.09;35.72;94881.84;5042706;28;7288;-60
2022/04/17 01:03:59;;;;;;;;;;;;;;;26.06;36.04;94882.78;5032516;28;8299;-60
2022/04/17 01:06:28;;;;;;;;;;;;;;;26.06;36.33;94874.53;5047990;28;9107;-59
2022/04/17 01:08:55;;;;;;;;;;;;;;;26.07;35.69;94867.78;5050375;28;7991;-59
2022/04/17 01:11:23;;;;;;;;;;;;;;;26.07;35.91;94862.25;5045845;28;8163;-59
2022/04/17 01:13:55;;;;;;;;;;;;;;;26.05;35.41;94866.78;5037455;28;9062;-60
2022/04/17 01:16:27;;;;;;;;;;;;;;;26.02;35.60;94860.25;5052304;28;7253;-59
2022/04/17 01:19:23;;;;;;;;;;;;;;;26.05;36.42;94864.78;5040147;28;9093;-59
2022/04/17 01:21:53;;;;;;;;;;;;;;;26.04;35.55;94860.50;5051292;28;9249;-59
2022/04/17 01:27:04;;;;;;;;;;;;;;;25.98;36.21;94854.25;5046344;28;9362;-60
2022/04/17 01:29:34;;;;;;;;;;;;;;;25.99;35.62;94855.72;5045852;28;9046;-59
2022/04/17 01:32:09;;;;;;;;;;;;;;;25.97;36.02;94840.94;5052024;28;9185;-59
2022/04/17 01:34:36;;;;;;;;;;;;;;;25.97;35.53;94849.97;5038465;28;8214;-60
2022/04/17 01:37:04;;;;;;;;;;;;;;;25.98;36.18;94843.22;5048329;28;9164;-59
2022/04/17 01:39:32;;;;;;;;;;;;;;;25.99;35.70;94855.72;5050193;28;7282;-59
2022/04/17 01:42:00;;;;;;;;;;;;;;;25.98;36.02;94854.25;5051996;28;7227;-59
2022/04/17 01:44:40;;;;;;;;;;;;;;;25.96;35.74;94848.47;5048800;28;9123;-59
2022/04/17 01:47:08;;;;;;;;;;;;;;;25.95;35.85;94844.22;5046967;28;6963;-60
2022/04/17 01:49:36;;;;;;;;;;;;;;;25.95;35.93;94833.19;5051497;28;9085;-59
2022/04/17 01:52:05;;;;;;;;;;;;;;;25.96;35.66;94836.69;5035099;28;8984;-59
2022/04/17 01:54:32;;;;;;;;;;;;;;;25.98;35.75;94834.19;5035493;28;9582;-60
2022/04/17 01:57:04;;;;;;;;;;;;;;;25.97;35.43;94835.44;5049621;28;7304;-59
2022/04/17 01:59:59;;;;;;;;;;;;;;;25.97;36.29;94825.16;5043145;28;7189;-59
2022/04/17 02:02:25;;;;;;;;;;;;;;;25.99;36.02;94819.91;4971000;28;8804;-59
2022/04/17 02:04:51;;;;;;;;;;;;;;;26.01;36.21;94822.91;4983013;28;7220;-59
2022/04/17 02:07:16;;;;;;;;;;;;;;;26.00;35.08;94824.16;4983341;28;8548;-59
2022/04/17 02:09:42;;;;;;;;;;;;;;;25.98;35.45;94823.94;4975075;28;7365;-60
2022/04/17 02:12:22;;;;;;;;;;;;;;;25.97;35.46;94825.16;4974572;28;7413;-59
2022/04/17 02:14:52;;;;;;;;;;;;;;;25.99;35.28;94822.66;4969130;28;7062;-59
2022/04/17 02:17:35;;;;;;;;;;;;;;;25.96;35.60;94817.41;4970165;28;8955;-59
2022/04/17 02:20:03;;;;;;;;;;;;;;;25.99;36.00;94816.41;4955944;28;9025;-59
2022/04/17 02:22:33;;;;;;;;;;;;;;;26.00;35.33;94821.41;4968690;28;7226;-59
2022/04/17 02:24:59;;;;;;;;;;;;;;;26.00;35.32;94815.16;4978351;28;9127;-59
2022/04/17 02:27:25;;;;;;;;;;;;;;;26.01;35.10;94816.66;4969133;28;7315;-59
2022/04/17 02:29:51;;;;;;;;;;;;;;;26.00;35.17;94809.63;4956280;28;7312;-59
2022/04/17 02:32:26;;;;;;;;;;;;;;;25.97;36.02;94805.88;4969344;28;8944;-59
2022/04/17 02:35:03;;;;;;;;;;;;;;;26.01;35.88;94800.84;4963190;28;9399;-59
2022/04/17 02:37:47;;;;;;;;;;;;;;;26.00;35.73;94804.88;4989117;28;9034;-59
2022/04/17 02:40:12;;;;;;;;;;;;;;;26.01;35.04;94797.38;5034913;28;9454;-59
2022/04/17 02:42:53;;;;;;;;;;;;;;;26.02;36.00;94796.84;5047510;28;9013;-59
2022/04/17 02:45:31;;;;;;;;;;;;;;;25.99;35.56;94794.38;5048963;28;9178;-59
2022/04/17 02:47:57;;;;;;;;;;;;;;;25.99;35.83;94792.34;5043965;28;9105;-60
2022/04/17 02:50:23;;;;;;;;;;;;;;;26.00;34.97;94799.38;5047132;28;8607;-59
2022/04/17 02:52:54;;;;;;;;;;;;;;;26.00;35.31;94802.13;5044566;28;7344;-59
2022/04/17 02:55:20;;;;;;;;;;;;;;;26.00;35.01;94796.59;5064278;28;9078;-60
2022/04/17 02:57:56;;;;;;;;;;;;;;;26.00;35.99;94791.09;5042545;28;9076;-59
2022/04/17 03:00:32;;;;;;;;;;;;;;;26.01;34.96;94797.38;5034143;28;7528;-59
2022/04/17 03:06:06;;;;;;;;;;;;;;;25.99;35.10;94797.13;5034984;28;7001;-59
2022/04/17 03:08:44;;;;;;;;;;;;;;;26.00;35.69;94801.38;5052121;28;7715;-59
2022/04/17 03:11:19;;;;;;;;;;;;;;;25.99;35.89;94788.84;5030473;28;8712;-59
2022/04/17 03:13:55;;;;;;;;;;;;;;;25.98;36.02;94801.88;5043185;28;9189;-59
2022/04/17 03:16:22;;;;;;;;;;;;;;;25.99;35.62;94802.63;5058090;28;7065;-60
2022/04/17 03:18:59;;;;;;;;;;;;;;;25.96;35.74;94798.88;5049305;28;7207;-59
2022/04/17 03:21:32;;;;;;;;;;;;;;;25.96;35.15;94796.13;5054426;28;8927;-59
2022/04/17 03:23:58;;;;;;;;;;;;;;;25.97;35.71;94792.09;5050487;28;7222;-60
2022/04/17 03:26:24;;;;;;;;;;;;;;;25.96;34.86;94801.63;5045189;28;7042;-60
2022/04/17 03:28:54;;;;;;;;;;;;;;;25.95;35.70;94793.84;5042530;28;7386;-59
2022/04/17 03:31:24;;;;;;;;;;;;;;;25.94;35.21;94798.63;5037126;28;7219;-59
2022/04/17 03:33:49;;;;;;;;;;;;;;;25.92;35.80;94790.13;5039595;28;9046;-59
2022/04/17 03:36:15;;;;;;;;;;;;;;;25.92;35.16;94790.13;5042378;28;7123;-59
2022/04/17 03:38:41;;;;;;;;;;;;;;;25.90;35.70;94787.09;5041825;28;9359;-59
2022/04/17 03:41:19;;;;;;;;;;;;;;;25.89;35.41;94788.34;5053974;28;9072;-59
2022/04/17 03:43:45;;;;;;;;;;;;;;;25.91;35.33;94790.59;5045810;28;9034;-59
2022/04/17 03:46:11;;;;;;;;;;;;;;;25.90;35.93;94787.09;5049945;28;7393;-59
2022/04/17 03:48:43;;;;;;;;;;;;;;;25.88;35.86;94788.88;5042545;28;9447;-59
2022/04/17 03:51:12;;;;;;;;;;;;;;;25.87;36.01;94782.59;5042762;28;9068;-59
2022/04/17 03:53:47;;;;;;;;;;;;;;;25.84;35.68;94782.84;5049098;28;7620;-59
2022/04/17 03:56:19;;;;;;;;;;;;;;;25.84;35.56;94775.31;5046853;28;7316;-60
2022/04/17 03:58:45;;;;;;;;;;;;;;;25.81;35.18;94776.34;5042484;28;7173;-60
2022/04/17 04:01:18;;;;;;;;;;;;;;;25.82;35.14;94777.84;5037047;28;7574;-59
2022/04/17 04:03:47;;;;;;;;;;;;;;;25.82;35.04;94786.09;5047391;28;7262;-59
2022/04/17 04:06:21;;;;;;;;;;;;;;;25.82;35.22;94777.84;5052993;28;9451;-60
2022/04/17 04:08:49;;;;;;;;;;;;;;;25.82;34.64;94779.84;5034051;28;7013;-59
2022/04/17 04:11:16;;;;;;;;;;;;;;;25.79;35.24;94781.63;5051272;28;7044;-59
2022/04/17 04:13:42;;;;;;;;;;;;;;;25.79;35.03;94784.38;5045451;28;8996;-59
2022/04/17 04:16:08;;;;;;;;;;;;;;;25.80;35.35;94783.09;5059008;28;8819;-60
2022/04/17 04:18:35;;;;;;;;;;;;;;;25.79;34.70;94776.09;5043518;28;7408;-59
2022/04/17 04:21:02;;;;;;;;;;;;;;;25.81;35.50;94776.34;5028883;28;9115;-59
2022/04/17 04:23:33;;;;;;;;;;;;;;;25.79;35.43;94773.34;5035469;28;7093;-60
2022/04/17 04:26:00;;;;;;;;;;;;;;;25.78;35.35;94773.81;5030041;28;6867;-60
2022/04/17 04:28:38;;;;;;;;;;;;;;;25.75;34.71;94772.09;5045807;28;9207;-59
2022/04/17 04:31:13;;;;;;;;;;;;;;;25.73;34.24;94778.09;5042447;28;7107;-60
2022/04/17 04:33:41;;;;;;;;;;;;;;;25.73;34.77;94767.06;5064059;28;9134;-59
2022/04/17 04:36:13;;;;;;;;;;;;;;;25.75;34.29;94783.13;5052542;28;8786;-60
2022/04/17 04:38:40;;;;;;;;;;;;;;;25.71;33.79;94777.84;5037360;28;7067;-60
2022/04/17 04:41:09;;;;;;;;;;;;;;;25.71;33.60;94780.59;5046985;28;7322;-60
2022/04/17 04:43:35;;;;;;;;;;;;;;;25.70;33.28;94770.84;5041739;28;9609;-60
2022/04/17 04:46:07;;;;;;;;;;;;;;;25.68;32.86;94787.13;5034392;28;7223;-60
2022/04/17 04:51:28;;;;;;;;;;;;;;;25.65;30.84;94768.84;5029734;28;7623;-60
2022/04/17 04:53:56;;;;;;;;;;;;;;;25.64;30.88;94766.59;5029572;28;7238;-60
2022/04/17 04:56:23;;;;;;;;;;;;;;;25.60;30.63;94775.09;5032025;28;7267;-60
2022/04/17 04:58:51;;;;;;;;;;;;;;;25.60;30.98;94772.34;5057031;28;7214;-60
2022/04/17 05:01:18;;;;;;;;;;;;;;;25.59;30.35;94761.84;5051560;28;7163;-60
2022/04/17 05:03:51;;;;;;;;;;;;;;;25.58;29.54;94763.81;5050990;28;7218;-60
2022/04/17 05:06:51;;;;;;;;;;;;;;;25.56;30.12;94766.34;5036528;28;9306;-60
2022/04/17 05:09:17;;;;;;;;;;;;;;;25.56;29.28;94765.56;4955189;28;7250;-60
2022/04/17 05:12:15;;;;;;;;;;;;;;;25.55;29.74;94767.59;4941038;28;9056;-60
2022/04/17 05:15:00;;;;;;;;;;;;;;;25.56;29.19;94768.34;4930373;29;9340;-60
2022/04/17 05:17:56;;;;;;;;;;;;;;;25.55;29.28;94775.09;4928242;29;7147;-60
2022/04/17 05:20:37;;;;;;;;;;;;;;;25.51;29.76;94767.09;4913526;29;7776;-59
2022/04/17 05:23:19;;;;;;;;;;;;;;;25.52;28.94;94774.09;4915255;29;7940;-59
2022/04/17 05:25:48;;;;;;;;;;;;;;;25.51;27.97;94772.63;4909723;29;9185;-60
2022/04/17 05:28:15;;;;;;;;;;;;;;;25.50;28.42;94771.09;4909790;29;7351;-60
2022/04/17 05:30:42;;;;;;;;;;;;;;;25.50;28.47;94776.59;4914559;29;7271;-60
2022/04/17 05:33:11;;;;;;;;;;;;;;;25.50;28.98;94770.34;4907888;29;8890;-60
2022/04/17 05:35:37;;;;;;;;;;;;;;;25.51;29.20;94774.63;4894865;29;9219;-60
2022/04/17 05:38:04;;;;;;;;;;;;;;;25.50;28.83;94773.09;4905737;29;8934;-60
2022/04/17 05:40:38;;;;;;;;;;;;;;;25.48;28.88;94773.59;4892991;29;9136;-60
2022/04/17 05:43:14;;;;;;;;;;;;;;;25.48;28.87;94779.13;4886850;29;8924;-60
2022/04/17 05:45:41;;;;;;;;;;;;;;;25.49;28.81;94779.88;4920949;28;7229;-60
2022/04/17 05:48:16;;;;;;;;;;;;;;;25.47;29.15;94787.88;4949353;28;7154;-60
2022/04/17 05:50:53;;;;;;;;;;;;;;;25.48;28.40;94794.88;4971926;28;8826;-60
2022/04/17 05:53:38;;;;;;;;;;;;;;;25.47;28.43;94788.63;4998603;28;8877;-60
2022/04/17 05:56:17;;;;;;;;;;;;;;;25.46;28.23;94792.63;4977143;28;7283;-60
2022/04/17 05:58:45;;;;;;;;;;;;;;;25.47;28.59;94791.38;5040351;28;7017;-60
2022/04/17 06:01:14;;;;;;;;;;;;;;;25.46;28.93;94795.38;5056831;28;8977;-61
2022/04/17 06:03:42;;;;;;;;;;;;;;;25.46;28.72;94791.88;5047000;28;7032;-61
2022/04/17 06:06:16;;;;;;;;;;;;;;;25.45;28.89;94795.91;5038399;28;7878;-61
2022/04/17 06:08:49;;;;;;;;;;;;;;;25.41;28.98;94798.84;5039097;28;7360;-60
2022/04/17 06:11:15;;;;;;;;;;;;;;;25.41;28.70;94787.84;5034285;28;8747;-60
2022/04/17 06:13:44;;;;;;;;;;;;;;;25.41;28.96;94791.34;5042303;28;9125;-60
2022/04/17 06:16:11;;;;;;;;;;;;;;;25.40;29.30;94792.59;5045403;28;9412;-59
2022/04/17 06:18:40;;;;;;;;;;;;;;;25.40;30.09;94797.38;5046175;28;9316;-60
2022/04/17 06:21:08;;;;;;;;;;;;;;;25.39;30.06;94796.59;5036273;28;9173;-60
2022/04/17 06:23:34;;;;;;;;;;;;;;;25.35;29.68;94792.59;5050541;28;9160;-60
2022/04/17 06:26:00;;;;;;;;;;;;;;;25.37;29.79;94784.59;5034404;28;7062;-60
2022/04/17 06:28:27;;;;;;;;;;;;;;;25.37;30.38;94782.59;5040701;28;7041;-60
2022/04/17 06:30:55;;;;;;;;;;;;;;;25.38;30.72;94783.34;5041320;28;7483;-60
2022/04/17 06:33:28;;;;;;;;;;;;;;;25.38;29.96;94789.59;5043056;28;8734;-60
2022/04/17 06:36:00;;;;;;;;;;;;;;;25.40;29.81;94783.59;5053483;28;7012;-60
2022/04/17 06:38:46;;;;;;;;;;;;;;;25.40;30.19;94789.09;5040652;28;8838;-60
2022/04/17 06:41:15;;;;;;;;;;;;;;;25.39;29.78;94790.34;5047167;28;9073;-60
2022/04/17 06:43:51;;;;;;;;;;;;;;;25.39;30.21;94785.59;5048068;28;7238;-60
2022/04/17 06:46:22;;;;;;;;;;;;;;;25.37;30.33;94776.31;5042019;28;8062;-60
2022/04/17 06:48:57;;;;;;;;;;;;;;;25.41;30.55;94793.34;5042318;28;7268;-60
2022/04/17 06:51:38;;;;;;;;;;;;;;;25.41;30.08;94787.84;5054948;28;7160;-60
2022/04/17 06:54:25;;;;;;;;;;;;;;;25.41;30.81;94787.84;5038806;28;7730;-60
2022/04/17 06:56:52;;;;;;;;;;;;;;;25.38;30.88;94786.09;5038375;28;7602;-60
2022/04/17 06:59:32;;;;;;;;;;;;;;;25.37;30.99;94776.31;5041454;28;9283;-60
2022/04/17 07:02:05;;;;;;;;;;;;;;;25.36;31.06;94772.06;5044653;28;7270;-60
2022/04/17 07:04:48;;;;;;;;;;;;;;;25.37;31.33;94771.56;5049413;28;8766;-60
2022/04/17 07:07:27;;;;;;;;;;;;;;;25.38;31.01;94781.31;5042915;28;7601;-60
2022/04/17 07:10:05;;;;;;;;;;;;;;;25.39;30.79;94784.84;5042286;28;7154;-60
2022/04/17 07:12:44;;;;;;;;;;;;;;;25.37;31.25;94782.59;5041982;28;7330;-60
2022/04/17 07:15:11;;;;;;;;;;;;;;;25.35;31.32;94776.84;5038105;28;7238;-60
2022/04/17 07:17:44;;;;;;;;;;;;;;;25.35;31.75;94779.59;5030869;28;9499;-60
2022/04/17 07:20:15;;;;;;;;;;;;;;;25.36;31.08;94783.06;5036339;28;7743;-59
2022/04/17 07:22:54;;;;;;;;;;;;;;;25.35;31.12;94779.59;5051988;28;9455;-60
2022/04/17 07:25:20;;;;;;;;;;;;;;;25.36;31.39;94778.31;5031166;28;8176;-60
2022/04/17 07:27:51;;;;;;;;;;;;;;;25.36;30.94;94781.06;5041327;28;9163;-60
2022/04/17 07:30:23;;;;;;;;;;;;;;;25.37;30.36;94773.56;5046450;28;8941;-60
2022/04/17 07:32:54;;;;;;;;;;;;;;;25.37;31.07;94779.84;5054847;28;7696;-60
2022/04/17 07:35:23;;;;;;;;;;;;;;;25.35;31.76;94776.84;5037903;28;9002;-60
2022/04/17 07:37:53;;;;;;;;;;;;;;;25.35;31.38;94778.81;5030116;28;7277;-60
2022/04/17 07:40:33;;;;;;;;;;;;;;;25.35;30.96;94773.31;5035113;28;7117;-60
2022/04/17 07:43:06;;;;;;;;;;;;;;;25.35;31.16;94770.56;5040672;28;9400;-60
2022/04/17 07:45:42;;;;;;;;;;;;;;;25.34;31.38;94774.56;5032789;28;7070;-60
2022/04/17 07:48:19;;;;;;;;;;;;;;;25.33;31.45;94778.56;5050644;28;7231;-60
2022/04/17 07:50:54;;;;;;;;;;;;;;;25.36;31.86;94781.06;5032090;28;9358;-60
2022/04/17 07:53:20;;;;;;;;;;;;;;;25.35;31.70;94776.84;5036181;28;8801;-60
2022/04/17 07:55:47;;;;;;;;;;;;;;;25.37;31.82;94771.56;5041293;28;7276;-60
2022/04/17 07:58:24;;;;;;;;;;;;;;;25.36;33.43;94769.31;5018900;28;9047;-60
2022/04/17 08:00:59;;;;;;;;;;;;;;;25.37;33.52;94779.06;5037706;28;7031;-60
2022/04/17 08:03:37;;;;;;;;;;;;;;;25.37;32.34;94773.56;5025436;28;7086;-60
2022/04/17 08:06:06;;;;;;;;;;;;;;;25.38;32.61;94775.09;5036888;28;7147;-60
2022/04/17 08:08:34;;;;;;;;;;;;;;;25.35;32.94;94774.06;5034091;28;9460;-60
2022/04/17 08:11:06;;;;;;;;;;;;;;;25.35;32.58;94776.84;5034864;28;7060;-60
2022/04/17 08:13:33;;;;;;;;;;;;;;;25.34;33.10;94766.28;5028966;28;9071;-61
2022/04/17 08:16:00;;;;;;;;;;;;;;;25.35;33.73;94776.06;5038278;28;9134;-60
2022/04/17 08:18:31;;;;;;;;;;;;;;;25.35;33.35;94776.84;5031210;28;7202;-61
2022/04/17 08:21:03;;;;;;;;;;;;;;;25.34;33.68;94767.06;5031249;28;8746;-60
2022/04/17 08:23:29;;;;;;;;;;;;;;;25.36;34.23;94766.53;5035078;28;9069;-61
2022/04/17 08:25:55;;;;;;;;;;;;;;;25.37;33.60;94770.81;5037974;28;7116;-60
2022/04/17 08:28:21;;;;;;;;;;;;;;;25.38;33.50;94784.06;5036348;28;7189;-60
2022/04/17 08:30:48;;;;;;;;;;;;;;;25.35;34.26;94774.06;5036309;28;9124;-60
2022/04/17 08:33:16;;;;;;;;;;;;;;;25.37;33.67;94774.31;5037305;28;7744;-60
2022/04/17 08:35:43;;;;;;;;;;;;;;;25.38;33.60;94769.56;5052991;28;9108;-60
2022/04/17 08:38:10;;;;;;;;;;;;;;;25.39;33.72;94765.56;5028829;28;9069;-60
2022/04/17 08:40:38;;;;;;;;;;;;;;;25.40;33.10;94772.59;5035060;28;7339;-60
2022/04/17 08:43:09;;;;;;;;;;;;;;;25.40;33.05;94780.84;5019872;28;9574;-60
2022/04/17 08:45:35;;;;;;;;;;;;;;;25.41;33.57;94774.06;5033366;28;7272;-60
2022/04/17 08:48:04;;;;;;;;;;;;;;;25.42;33.42;94773.59;5045548;28;7235;-60
2022/04/17 08:50:39;;;;;;;;;;;;;;;25.42;33.73;94759.09;5049904;28;9150;-60
2022/04/17 08:53:15;;;;;;;;;;;;;;;25.42;33.74;94759.81;5045677;28;7193;-61
2022/04/17 08:55:51;;;;;;;;;;;;;;;25.43;33.67;94749.56;5043377;28;9089;-60
2022/04/17 08:58:19;;;;;;;;;;;;;;;25.42;33.09;94748.06;5046613;28;7243;-60
2022/04/17 09:00:50;;;;;;;;;;;;;;;25.42;33.57;94753.59;5046466;28;7168;-61
2022/04/17 09:03:17;;;;;;;;;;;;;;;25.42;33.64;94750.81;5046077;28;9119;-60
2022/04/17 09:05:48;;;;;;;;;;;;;;;25.43;33.57;94731.03;5040626;28;7028;-61
2022/04/17 09:08:19;;;;;;;;;;;;;;;25.44;33.83;94734.56;5054900;28;9254;-60
2022/04/17 09:10:58;;;;;;;;;;;;;;;25.46;34.12;94737.56;5044205;28;9141;-61
2022/04/17 09:13:53;;;;;;;;;;;;;;;25.48;34.35;94728.78;5044802;28;7242;-61
2022/04/17 09:16:51;;;;;;;;;;;;;;;25.48;34.13;94723.28;5053595;28;8718;-61
2022/04/17 09:19:19;;;;;;;;;;;;;;;25.49;34.47;94733.06;4972989;28;7340;-60
2022/04/17 09:22:15;;;;;;;;;;;;;;;25.48;35.02;94721.28;4972482;28;7492;-60
2022/04/17 09:24:46;;;;;;;;;;;;;;;25.51;34.71;94725.03;4987339;28;9006;-60
2022/04/17 09:27:12;;;;;;;;;;;;;;;25.49;34.50;94722.03;4973942;28;7250;-60
2022/04/17 09:29:41;;;;;;;;;;;;;;;25.48;35.26;94717.78;4983134;28;8673;-60
2022/04/17 09:32:12;;;;;;;;;;;;;;;25.48;34.32;94721.28;4982039;28;9107;-61
2022/04/17 09:34:58;;;;;;;;;;;;;;;25.49;34.73;94722.75;4986450;28;7333;-60
2022/04/17 09:37:29;;;;;;;;;;;;;;;25.49;34.82;94717.25;4987470;28;9057;-60
2022/04/17 09:40:10;;;;;;;;;;;;;;;25.50;35.22;94718.00;4970437;28;7699;-60
2022/04/17 09:42:36;;;;;;;;;;;;;;;25.48;34.51;94713.00;4952682;28;8066;-61
2022/04/17 09:45:07;;;;;;;;;;;;;;;25.50;35.21;94709.75;4970669;28;7062;-60
2022/04/17 09:47:33;;;;;;;;;;;;;;;25.49;34.64;94709.00;4967870;28;7249;-60
2022/04/17 09:50:08;;;;;;;;;;;;;;;25.49;35.20;94703.50;4971937;28;7529;-59
2022/04/17 09:52:56;;;;;;;;;;;;;;;25.49;35.46;94700.72;4979568;28;6991;-60
2022/04/17 09:55:38;;;;;;;;;;;;;;;25.50;35.28;94695.97;5016893;28;8760;-60
2022/04/17 09:58:04;;;;;;;;;;;;;;;25.50;34.80;94696.75;5037334;28;9061;-60
2022/04/17 10:00:52;;;;;;;;;;;;;;;25.49;35.12;94681.44;5042443;28;8717;-60
2022/04/17 10:03:30;;;;;;;;;;;;;;;25.50;35.03;94691.22;5040996;28;7879;-61
2022/04/17 10:06:02;;;;;;;;;;;;;;;25.49;35.74;94686.97;5049357;28;9178;-61
2022/04/17 10:08:35;;;;;;;;;;;;;;;25.50;35.87;94682.22;5033203;28;9385;-60
2022/04/17 10:11:15;;;;;;;;;;;;;;;25.49;35.80;94673.19;5045179;28;8508;-60
2022/04/17 10:13:42;;;;;;;;;;;;;;;25.49;35.38;94675.94;5035780;28;8829;-60
2022/04/17 10:16:11;;;;;;;;;;;;;;;25.50;36.05;94671.94;5046164;28;9115;-60
2022/04/17 10:18:42;;;;;;;;;;;;;;;25.50;35.56;94669.19;5041249;28;9139;-60
2022/04/17 10:21:11;;;;;;;;;;;;;;;25.53;36.06;94676.47;5035917;28;7046;-60
2022/04/17 10:23:59;;;;;;;;;;;;;;;25.51;36.11;94667.97;5042529;28;9187;-60
2022/04/17 10:26:31;;;;;;;;;;;;;;;25.51;35.87;94667.97;5036619;28;8297;-60
2022/04/17 10:29:04;;;;;;;;;;;;;;;25.51;36.21;94667.97;5040579;28;7058;-61
2022/04/17 10:31:54;;;;;;;;;;;;;;;25.51;35.96;94661.69;5044006;28;8368;-61
2022/04/17 10:35:09;;;;;;;;;;;;;;;25.55;36.28;94656.66;5042496;28;7441;-60
2022/04/17 10:38:10;;;;;;;;;;;;;;;25.55;36.41;94651.91;4947778;28;7141;-60
2022/04/17 10:40:37;;;;;;;;;;;;;;;25.54;36.43;94650.41;4941897;28;9113;-61
2022/04/17 10:43:06;;;;;;;;;;;;;;;25.55;36.48;94649.16;4963892;28;7801;-61
2022/04/17 10:46:07;;;;;;;;;;;;;;;25.57;35.72;94654.16;4960126;28;7184;-60
2022/04/17 10:48:58;;;;;;;;;;;;;;;25.56;36.09;94658.91;4944007;28;9168;-60
2022/04/17 10:51:30;;;;;;;;;;;;;;;25.55;35.92;94660.19;4961305;28;9477;-60
2022/04/17 10:54:03;;;;;;;;;;;;;;;25.55;36.03;94660.19;4952070;28;9552;-60
2022/04/17 10:57:05;;;;;;;;;;;;;;;25.55;36.50;94657.44;4959215;28;7161;-60
2022/04/17 10:59:33;;;;;;;;;;;;;;;25.53;36.53;94648.91;4950641;28;8320;-60
2022/04/17 11:02:24;;;;;;;;;;;;;;;25.56;36.62;94649.91;4966955;28;9062;-59
2022/04/17 11:04:55;;;;;;;;;;;;;;;25.56;36.12;94642.38;4960555;28;7223;-60
2022/04/17 11:07:33;;;;;;;;;;;;;;;25.58;35.87;94637.13;4960163;28;7012;-60
2022/04/17 11:10:31;;;;;;;;;;;;;;;25.59;35.99;94633.13;4962936;28;7348;-60
2022/04/17 11:13:04;;;;;;;;;;;;;;;25.60;36.21;94628.38;4952999;28;8785;-60
2022/04/17 11:15:34;;;;;;;;;;;;;;;25.60;35.74;94631.84;5032234;28;9232;-60
2022/04/17 11:18:06;;;;;;;;;;;;;;;25.61;35.69;94625.09;5039303;28;7275;-60
2022/04/17 11:20:51;;;;;;;;;;;;;;;25.62;36.68;94628.63;5034182;28;8366;-60
2022/04/17 11:23:53;;;;;;;;;;;;;;;25.63;36.68;94624.59;5039948;28;8953;-60
2022/04/17 11:26:19;;;;;;;;;;;;;;;25.63;36.49;94613.56;5052890;28;7027;-60
2022/04/17 11:28:58;;;;;;;;;;;;;;;25.66;36.67;94615.34;5045656;28;7241;-59
2022/04/17 11:31:33;;;;;;;;;;;;;;;25.67;36.15;94614.81;5055235;28;7460;-60
2022/04/17 11:34:03;;;;;;;;;;;;;;;25.66;35.81;94612.56;5046432;28;7364;-60
2022/04/17 11:36:31;;;;;;;;;;;;;;;25.68;35.90;94605.31;5032915;28;7335;-59
2022/04/17 11:38:57;;;;;;;;;;;;;;;25.68;36.37;94613.56;5030405;28;9413;-60
2022/04/17 11:41:24;;;;;;;;;;;;;;;25.69;35.85;94604.03;5036542;28;8915;-59
2022/04/17 11:44:01;;;;;;;;;;;;;;;25.69;36.01;94606.78;5036385;28;9740;-60
2022/04/17 11:46:32;;;;;;;;;;;;;;;25.73;36.62;94603.78;5033481;28;7083;-60
2022/04/17 11:49:02;;;;;;;;;;;;;;;25.73;36.18;94607.28;5046850;28;7230;-61
2022/04/17 11:51:27;;;;;;;;;;;;;;;25.75;36.18;94595.78;5027256;28;7053;-60
2022/04/17 11:53:56;;;;;;;;;;;;;;;25.73;36.07;94599.00;5036012;28;7167;-60
2022/04/17 11:56:22;;;;;;;;;;;;;;;25.75;35.70;94604.75;5031484;28;8789;-60
2022/04/17 11:58:50;;;;;;;;;;;;;;;25.75;36.13;94604.75;5036539;28;8184;-60
2022/04/17 12:01:24;;;;;;;;;;;;;;;25.75;35.90;94598.53;5027432;28;9261;-60
2022/04/17 12:03:55;;;;;;;;;;;;;;;25.78;35.55;94606.50;5037961;28;9064;-60
2022/04/17 12:06:41;;;;;;;;;;;;;;;25.78;36.13;94595.50;5046807;28;8941;-60
2022/04/17 12:09:14;;;;;;;;;;;;;;;25.78;35.82;94587.22;5061471;28;8723;-61
2022/04/17 12:11:43;;;;;;;;;;;;;;;25.77;36.13;94580.22;5035617;28;9173;-60
2022/04/17 12:14:14;;;;;;;;;;;;;;;25.78;35.80;94584.47;5053539;28;9278;-60
2022/04/17 12:16:51;;;;;;;;;;;;;;;25.78;35.57;94578.97;5060171;28;9869;-60
2022/04/17 12:19:17;;;;;;;;;;;;;;;25.79;35.34;94574.97;5038591;28;7266;-60
2022/04/17 12:21:43;;;;;;;;;;;;;;;25.81;36.05;94577.19;5041147;28;7204;-60
2022/04/17 12:24:08;;;;;;;;;;;;;;;25.83;34.92;94582.94;5028731;28;7266;-60
2022/04/17 12:26:35;;;;;;;;;;;;;;;25.83;34.83;94583.72;5043602;28;7748;-60
2022/04/17 12:29:05;;;;;;;;;;;;;;;25.85;34.97;94580.44;5039793;28;9014;-60
2022/04/17 12:31:37;;;;;;;;;;;;;;;25.85;35.40;94581.19;5047915;28;7831;-60
2022/04/17 12:34:09;;;;;;;;;;;;;;;25.85;35.12;94570.16;5037515;28;7312;-60
2022/04/17 12:36:42;;;;;;;;;;;;;;;25.87;35.11;94564.91;5035507;28;7118;-61
2022/04/17 12:39:09;;;;;;;;;;;;;;;25.90;35.45;94566.63;5034163;28;8186;-60
2022/04/17 12:41:44;;;;;;;;;;;;;;;25.90;34.67;94563.88;5037090;28;9421;-60
2022/04/17 12:44:13;;;;;;;;;;;;;;;25.88;34.88;94554.63;5049808;28;8897;-61
2022/04/17 12:46:43;;;;;;;;;;;;;;;25.93;34.79;94565.63;5040877;28;7021;-60
2022/04/17 12:49:18;;;;;;;;;;;;;;;25.94;34.40;94561.63;5048967;28;9116;-60
2022/04/17 12:51:59;;;;;;;;;;;;;;;25.96;34.14;94550.81;5053181;28;9492;-60
2022/04/17 12:54:33;;;;;;;;;;;;;;;25.97;35.15;94549.56;5043903;28;9127;-60
2022/04/17 12:57:10;;;;;;;;;;;;;;;25.99;34.15;94557.34;5036931;28;9295;-60
2022/04/17 12:59:47;;;;;;;;;;;;;;;25.98;34.31;94542.78;5029836;28;7063;-60
2022/04/17 13:02:27;;;;;;;;;;;;;;;25.98;34.40;94542.03;5043765;28;7256;-60
2022/04/17 13:04:55;;;;;;;;;;;;;;;25.99;34.94;94552.53;5037458;28;9080;-60
2022/04/17 13:07:21;;;;;;;;;;;;;;;26.01;34.42;94552.78;5039137;28;7189;-60
2022/04/17 13:10:03;;;;;;;;;;;;;;;26.01;34.13;94536.25;5040357;28;7436;-60
2022/04/17 13:12:45;;;;;;;;;;;;;;;25.99;34.75;94524.97;5046298;28;9078;-60
2022/04/17 13:15:19;;;;;;;;;;;;;;;26.01;34.31;94527.97;5046273;28;7028;-60
2022/04/17 13:17:55;;;;;;;;;;;;;;;26.03;34.59;94522.69;5028228;28;8961;-61
2022/04/17 13:20:23;;;;;;;;;;;;;;;26.03;34.14;94530.25;5030380;28;8601;-60
2022/04/17 13:22:50;;;;;;;;;;;;;;;26.04;34.96;94517.94;5047232;28;9078;-60
2022/04/17 13:25:19;;;;;;;;;;;;;;;26.05;34.33;94520.22;5048561;28;7516;-61
2022/04/17 13:27:46;;;;;;;;;;;;;;;26.07;34.50;94514.19;5044428;28;7121;-60
2022/04/17 13:30:14;;;;;;;;;;;;;;;26.07;34.70;94514.94;5044401;28;8753;-60
2022/04/17 13:32:46;;;;;;;;;;;;;;;26.09;35.07;94501.41;5054466;28;9719;-60
2022/04/17 13:35:31;;;;;;;;;;;;;;;26.09;35.18;94498.66;5048736;28;7190;-60